AirNav   Everest Fuels
 
 1134 users online  

O65 Christman Airfield
Okeene, Oklahoma, USA

GOING TO OKEENE?


FAA INFORMATION EFFECTIVE 16 JUNE 2022

Location

FAA Identifier: O65
Lat/Long: 36-06-45.1320N 098-18-31.2570W
36-06.752200N 098-18.520950W
36.1125367,-98.3086825
(estimated)
Elevation: 1207.5 ft. / 368 m (estimated)
Variation: 07E (1985)
From city: 1 mile SE of OKEENE, OK
Time zone: UTC -5 (UTC -6 during Standard Time)
Zip code: 73763

Airport Operations

Airport use: Open to the public
Activation date: 03/1948
Control tower: no
ARTCC: KANSAS CITY CENTER
FSS: MC ALESTER FLIGHT SERVICE STATION
NOTAMs facility: MLC (NOTAM-D service available)
Attendance: UNATNDD
Wind indicator: lighted
Segmented circle: yes
Lights: MIRL RWY 17/35 PRESET LOW INTENSITY, TO INCREASE INTENSITY - CTAF.
Beacon: white-green (lighted land airport)
Operates sunset to sunrise.

Airport Communications

CTAF: 122.9
WX AWOS-3 at JWG (16 nm S): 134.175 (580-623-7388)

Airport Services

Parking: tiedowns
Airframe service: NONE
Powerplant service: NONE
Bottled oxygen: NONE
Bulk oxygen: NONE

Runway Information

Runway 17/35

Dimensions: 3000 x 60 ft. / 914 x 18 m
Surface: asphalt, in good condition
Weight bearing capacity: 
Single wheel: 12.0
Runway edge lights: medium intensity
RUNWAY 17  RUNWAY 35
Latitude: 36-06.868333N36-06.373833N
Longitude: 098-18.522500W098-18.521833W
Elevation: 1207.5 ft.1196.1 ft.
Traffic pattern: leftleft
Runway heading: 173 magnetic, 180 true353 magnetic, 360 true
Markings: basic, in good conditionbasic, in good condition
Obstructions: 28 ft. tree, 575 ft. from runway, 140 ft. right of centerline, 13:1 slope to clearnone

Airport Ownership and Management from official FAA records

Ownership: Publicly-owned
Owner: CITY OF OKEENE
PO BOX 800, 118 MADISON AVE.
OKEENE, OK 73763
Phone 580-822-3035
Manager: GERALD HAURY
PO BOX 800
OKEENE, OK 73763
Phone 580-822-3035
CITY MANAGER.

Airport Operational Statistics

Aircraft based on the field: 4
Single engine airplanes: 2
Multi engine airplanes: 2
    
Aircraft operations: avg 57/week *
93% local general aviation
7% transient general aviation
* for 12-month period ending 24 August 2018

Additional Remarks

FOR CD CTC VANCE APCH AT 580-213-6765. WHEN VANCE APCH IS CLSD, CTC KANSAS CITY ARTCC AT 913-254-8508.

Instrument Procedures

There are no published instrument procedures at O65.

Some nearby airports with instrument procedures:

6K4 - Fairview Municipal Airport (13 nm NW)
KJWG - Watonga Regional Airport (16 nm S)
KEND - Vance Air Force Base (23 nm NE)
KWDG - Enid Woodring Regional Airport (30 nm NE)
1O4 - Thomas Municipal Airport (31 nm SW)
 
Loc | Ops | Rwys | IFR | FBO | Links
Com | Nav | Svcs | Stats | Notes
Area around O65 (Christman Airfield)
 
Road maps at: MapQuest Bing Google
 
Aerial photo
WARNING: Photo may not be current or correct
Aerial photo of O65 (Christman Airfield)
Photo taken 05-Feb-2016
looking east.

Do you have a better or more recent aerial photo of Christman Airfield that you would like to share? If so, please send us your photo.

 
Sectional chart

 
Airport distance calculator
Flying to Christman Airfield? Find the distance to fly.

From to O65

Sunrise and sunset
Times for 26-Jun-2022
 Local
(UTC-5)
 Zulu
(UTC)
Morning civil twilight05:4910:49
Sunrise06:1911:19
Sunset20:5301:53
Evening civil twilight21:2402:24

Current date and time
Zulu (UTC)  26-Jun-2022 21:27:12
Local (UTC-5)  26-Jun-2022 16:27:12
 
METAR
KJWG 
16nm S 
262115Z AUTO 01015G25KT 10SM SCT120 27/08 A3031 RMK AO2 T02740081
KEND 
23nm NE 
262056Z AUTO 02010G18KT 10SM OVC120 25/11 A3029 RMK AO2 SLP248 T02520106 50002
KWDG 
30nm NE 
262045Z 01012KT 10SM BKN120 26/10 A3028
TAF
KEND 
23nm NE 
261800Z 2618/2724 04015G25KT 9999 SCT100 BKN150 QNH3024INS BECMG 2702/2703 02010KT 9999 SCT100 BKN150 QNH3027INS BECMG 2714/2715 07010G15KT 9999 SCT100 BKN150 QNH3021INS TX27/2621Z TN16/2712Z
NOTAMs
Click for the latest NOTAMs
NOTAMs are issued by the DoD/FAA and will open in a separate window not controlled by AirNav.

 

 
 

Would you like to see your business listed on this page?

 If your business provides an interesting product or service to pilots, flight crews, aircraft, or users of the Christman Airfield, you should consider listing it here.  To start the listing process, click on the button below
 
Add a business
 

Other Pages about Christman Airfield

Update a link
 
Copyright © AirNav, LLC. All rights reserved. Privacy Policy  Contact